Time;durP1;ratioP1;P1;durP2;ratioP2;P2;SDS_P1;SDS_P2;PMS_P1;PMS_P2;Temp;Humidity;BMP_temperature;BMP_pressure;BME280_temperature;BME280_humidity;BME280_pressure;Samples;Min_cycle;Max_cycle;Signal;HPM_P1;HPM_P2
2023/06/11 00:01:50;;;;;;;13.65;9.00;;;;;;;;;;4992801;28;20037;-53
2023/06/11 00:04:19;;;;;;;11.82;8.52;;;;;;;;;;4992279;28;20289;-55
2023/06/11 00:06:45;;;;;;;11.60;8.60;;;;;;;;;;4994625;28;20035;-53
2023/06/11 00:09:11;;;;;;;12.68;8.75;;;;;;;;;;5011008;28;20046;-54
2023/06/11 00:11:41;;;;;;;14.85;8.15;;;;;;;;;;5009577;28;20364;-55
2023/06/11 00:14:08;;;;;;;9.90;8.52;;;;;;;;;;5010815;28;20033;-55
2023/06/11 00:16:34;;;;;;;11.38;8.48;;;;;;;;;;5011826;28;20070;-52
2023/06/11 00:19:00;;;;;;;10.40;8.68;;;;;;;;;;5000670;28;20375;-54
2023/06/11 00:21:25;;;;;;;11.52;8.82;;;;;;;;;;5012702;28;20038;-54
2023/06/11 00:23:51;;;;;;;11.18;8.90;;;;;;;;;;5008591;28;20037;-52
2023/06/11 00:26:16;;;;;;;11.18;9.57;;;;;;;;;;5010020;28;20596;-53
2023/06/11 00:28:41;;;;;;;10.55;8.82;;;;;;;;;;5012240;28;20033;-54
2023/06/11 00:31:07;;;;;;;12.40;8.90;;;;;;;;;;4994584;28;20496;-54
2023/06/11 00:33:32;;;;;;;11.55;8.48;;;;;;;;;;5010311;28;20537;-53
2023/06/11 00:35:58;;;;;;;12.10;8.60;;;;;;;;;;5011537;28;20463;-55
2023/06/11 00:38:23;;;;;;;10.65;8.77;;;;;;;;;;5010207;28;20030;-55
2023/06/11 00:40:49;;;;;;;10.68;9.23;;;;;;;;;;5008204;28;20053;-50
2023/06/11 00:43:17;;;;;;;11.13;9.05;;;;;;;;;;5010959;28;20740;-54
2023/06/11 00:45:44;;;;;;;14.50;9.27;;;;;;;;;;4995650;28;20124;-54
2023/06/11 00:48:10;;;;;;;17.33;9.15;;;;;;;;;;5005988;28;20100;-52
2023/06/11 00:50:44;;;;;;;11.15;8.80;;;;;;;;;;5010244;28;20026;-56
2023/06/11 00:53:10;;;;;;;11.93;9.30;;;;;;;;;;5009523;28;20125;-55
2023/06/11 00:55:36;;;;;;;14.27;9.25;;;;;;;;;;5008311;28;20483;-54
2023/06/11 00:58:02;;;;;;;11.40;9.32;;;;;;;;;;5001237;28;20053;-53
2023/06/11 01:00:27;;;;;;;10.82;8.93;;;;;;;;;;4974897;28;20375;-56
2023/06/11 01:03:07;;;;;;;11.27;9.68;;;;;;;;;;4999063;28;20030;-52
2023/06/11 01:05:43;;;;;;;13.00;9.63;;;;;;;;;;5011749;28;20041;-55
2023/06/11 01:08:12;;;;;;;10.23;9.10;;;;;;;;;;5010147;28;20065;-55
2023/06/11 01:10:40;;;;;;;14.47;10.07;;;;;;;;;;5010932;28;20467;-54
2023/06/11 01:13:05;;;;;;;12.93;9.55;;;;;;;;;;5010473;28;20732;-54
2023/06/11 01:15:30;;;;;;;11.30;9.00;;;;;;;;;;5009152;28;20033;-54
2023/06/11 01:18:10;;;;;;;13.57;9.13;;;;;;;;;;5006014;28;20026;-54
2023/06/11 01:21:13;;;;;;;12.80;9.27;;;;;;;;;;5000662;28;20038;-52
2023/06/11 01:24:07;;;;;;;15.20;9.70;;;;;;;;;;5006230;28;20064;-55
2023/06/11 01:27:04;;;;;;;12.77;9.50;;;;;;;;;;4991568;28;20022;-55
2023/06/11 01:29:29;;;;;;;12.25;9.73;;;;;;;;;;5003571;28;20061;-52
2023/06/11 01:31:56;;;;;;;11.57;9.45;;;;;;;;;;5003131;28;20061;-55
2023/06/11 01:34:25;;;;;;;15.55;9.30;;;;;;;;;;5000199;28;20538;-52
2023/06/11 01:36:50;;;;;;;14.13;9.50;;;;;;;;;;5011541;28;20482;-54
2023/06/11 01:39:16;;;;;;;11.75;9.40;;;;;;;;;;5007103;28;20030;-54
2023/06/11 01:41:41;;;;;;;10.55;9.13;;;;;;;;;;5009759;28;20034;-54
2023/06/11 01:44:06;;;;;;;12.23;9.70;;;;;;;;;;5008377;28;20375;-56
2023/06/11 01:46:32;;;;;;;13.48;9.98;;;;;;;;;;4997596;28;20046;-56
2023/06/11 01:48:57;;;;;;;16.65;10.30;;;;;;;;;;5007082;28;20026;-55
2023/06/11 01:51:23;;;;;;;13.85;9.93;;;;;;;;;;5000756;28;20136;-50
2023/06/11 01:53:48;;;;;;;13.75;9.90;;;;;;;;;;5006643;28;20097;-54
2023/06/11 01:56:13;;;;;;;12.98;9.05;;;;;;;;;;4995111;28;20479;-49
2023/06/11 01:58:40;;;;;;;10.90;8.65;;;;;;;;;;4993907;28;20464;-54
2023/06/11 02:01:08;;;;;;;10.88;9.07;;;;;;;;;;4996522;28;20048;-52
2023/06/11 02:03:33;;;;;;;11.85;8.55;;;;;;;;;;5011600;28;20029;-54
2023/06/11 02:05:58;;;;;;;11.95;9.20;;;;;;;;;;5013667;28;20602;-51
2023/06/11 02:08:26;;;;;;;12.73;9.10;;;;;;;;;;5013767;28;20065;-55
2023/06/11 02:10:51;;;;;;;11.27;8.90;;;;;;;;;;5007900;28;20036;-56
2023/06/11 02:13:17;;;;;;;11.98;8.65;;;;;;;;;;5000409;28;20113;-52
2023/06/11 02:15:42;;;;;;;10.88;8.60;;;;;;;;;;5000980;28;20033;-55
2023/06/11 02:18:07;;;;;;;10.98;8.70;;;;;;;;;;5010594;28;20044;-55
2023/06/11 02:20:33;;;;;;;12.25;8.95;;;;;;;;;;5013544;28;20041;-54
2023/06/11 02:22:58;;;;;;;9.30;8.35;;;;;;;;;;5011277;28;20460;-55
2023/06/11 02:25:24;;;;;;;11.38;8.43;;;;;;;;;;5011976;28;20040;-55
2023/06/11 02:27:49;;;;;;;10.05;8.90;;;;;;;;;;5011356;28;20049;-52
2023/06/11 02:30:15;;;;;;;11.45;9.00;;;;;;;;;;5000290;28;20109;-52
2023/06/11 02:32:40;;;;;;;12.50;9.35;;;;;;;;;;4994388;28;20026;-60
2023/06/11 02:35:07;;;;;;;12.75;9.63;;;;;;;;;;5007128;28;20132;-59
2023/06/11 02:37:32;;;;;;;11.50;9.45;;;;;;;;;;5010842;28;20486;-60
2023/06/11 02:39:57;;;;;;;11.32;9.60;;;;;;;;;;5013346;28;20049;-60
2023/06/11 02:42:23;;;;;;;13.20;9.63;;;;;;;;;;5012396;28;20590;-60
2023/06/11 02:44:48;;;;;;;11.80;9.95;;;;;;;;;;5003097;28;20057;-60
2023/06/11 02:47:14;;;;;;;15.18;10.50;;;;;;;;;;4994154;28;20092;-60
2023/06/11 02:49:39;;;;;;;12.20;10.55;;;;;;;;;;5012455;28;20379;-60
2023/06/11 02:52:05;;;;;;;14.75;10.45;;;;;;;;;;5002040;28;20438;-59
2023/06/11 02:54:31;;;;;;;12.38;10.38;;;;;;;;;;4993981;28;20030;-60
2023/06/11 02:56:56;;;;;;;12.52;9.75;;;;;;;;;;5009425;28;20077;-60
2023/06/11 02:59:21;;;;;;;12.25;9.70;;;;;;;;;;5011967;28;20038;-60
2023/06/11 03:01:47;;;;;;;11.73;10.00;;;;;;;;;;5013133;28;20040;-60
2023/06/11 03:04:12;;;;;;;15.45;11.02;;;;;;;;;;5001256;28;20476;-60
2023/06/11 03:06:37;;;;;;;13.05;10.40;;;;;;;;;;5005207;28;20048;-60
2023/06/11 03:09:03;;;;;;;17.13;10.60;;;;;;;;;;5008908;28;20101;-60
2023/06/11 03:11:28;;;;;;;17.23;9.98;;;;;;;;;;4994059;28;20034;-60
2023/06/11 03:13:53;;;;;;;12.45;10.10;;;;;;;;;;4992948;28;20034;-60
2023/06/11 03:16:19;;;;;;;13.02;10.60;;;;;;;;;;4999341;28;20470;-59
2023/06/11 03:18:44;;;;;;;13.13;10.82;;;;;;;;;;5013631;28;20029;-60
2023/06/11 03:21:10;;;;;;;13.18;11.18;;;;;;;;;;5010737;28;20033;-60
2023/06/11 03:23:36;;;;;;;13.60;11.32;;;;;;;;;;5012303;28;20471;-60
2023/06/11 03:26:01;;;;;;;16.10;10.98;;;;;;;;;;5008245;28;20046;-60
2023/06/11 03:28:27;;;;;;;12.48;10.93;;;;;;;;;;5010855;28;20061;-60
2023/06/11 03:30:52;;;;;;;13.48;11.07;;;;;;;;;;4995605;28;20042;-60
2023/06/11 03:33:18;;;;;;;13.40;10.55;;;;;;;;;;4994767;28;20430;-60
2023/06/11 03:35:43;;;;;;;14.02;11.23;;;;;;;;;;5013305;28;20566;-60
2023/06/11 03:38:08;;;;;;;15.38;11.13;;;;;;;;;;5011808;28;20072;-60
2023/06/11 03:40:34;;;;;;;12.65;10.45;;;;;;;;;;5011432;28;20045;-60
2023/06/11 03:42:59;;;;;;;15.80;11.00;;;;;;;;;;5009119;28;20038;-59
2023/06/11 03:45:25;;;;;;;12.38;11.10;;;;;;;;;;5010179;28;20115;-59
2023/06/11 03:47:52;;;;;;;13.60;10.40;;;;;;;;;;5010129;28;20378;-59
2023/06/11 03:50:18;;;;;;;14.23;11.18;;;;;;;;;;5012308;28;20072;-59
2023/06/11 03:52:44;;;;;;;14.73;10.98;;;;;;;;;;5011205;28;20135;-61
2023/06/11 03:55:10;;;;;;;11.68;10.45;;;;;;;;;;5008321;28;20034;-61
2023/06/11 03:57:36;;;;;;;11.60;10.40;;;;;;;;;;5009620;28;20041;-59
2023/06/11 04:00:01;;;;;;;13.25;10.57;;;;;;;;;;4998534;28;20395;-59
2023/06/11 04:02:27;;;;;;;15.00;11.30;;;;;;;;;;4993687;28;20139;-59
2023/06/11 04:04:53;;;;;;;13.70;10.65;;;;;;;;;;5004293;28;20038;-59
2023/06/11 04:07:18;;;;;;;14.23;11.07;;;;;;;;;;5010599;28;20041;-59
2023/06/11 04:09:43;;;;;;;12.35;10.30;;;;;;;;;;5004027;28;20459;-59
2023/06/11 04:12:09;;;;;;;14.70;10.65;;;;;;;;;;5007942;28;20438;-59
2023/06/11 04:14:35;;;;;;;13.65;10.88;;;;;;;;;;5010452;28;20026;-60
2023/06/11 04:17:00;;;;;;;12.48;10.82;;;;;;;;;;4993011;28;20035;-59
2023/06/11 04:19:25;;;;;;;14.32;10.77;;;;;;;;;;4991941;28;20052;-60
2023/06/11 04:21:51;;;;;;;12.15;10.35;;;;;;;;;;4996040;28;20038;-59
2023/06/11 04:24:16;;;;;;;12.75;10.93;;;;;;;;;;5010074;28;20116;-58
2023/06/11 04:26:43;;;;;;;17.92;10.77;;;;;;;;;;5010273;28;20025;-59
2023/06/11 04:29:08;;;;;;;14.25;11.10;;;;;;;;;;5005363;28;20440;-59
2023/06/11 04:31:34;;;;;;;12.80;11.13;;;;;;;;;;5009381;28;20066;-61
2023/06/11 04:34:06;;;;;;;15.63;10.75;;;;;;;;;;5012250;28;20398;-60
2023/06/11 04:36:32;;;;;;;13.48;10.82;;;;;;;;;;4998951;28;20552;-59
2023/06/11 04:39:01;;;;;;;13.23;10.35;;;;;;;;;;5011269;28;20124;-60
2023/06/11 04:41:29;;;;;;;11.65;10.45;;;;;;;;;;5001802;28;20045;-60
2023/06/11 04:43:55;;;;;;;14.07;11.23;;;;;;;;;;4996711;28;20038;-60
2023/06/11 04:46:21;;;;;;;15.48;11.18;;;;;;;;;;5009080;28;20033;-60
2023/06/11 04:48:50;;;;;;;12.90;11.35;;;;;;;;;;5011238;28;20046;-60
2023/06/11 04:51:16;;;;;;;14.40;10.63;;;;;;;;;;5011347;28;20052;-59
2023/06/11 04:53:42;;;;;;;16.58;11.05;;;;;;;;;;5009770;28;20112;-60
2023/06/11 04:56:08;;;;;;;14.25;11.32;;;;;;;;;;5011701;28;20467;-60
2023/06/11 04:58:34;;;;;;;17.77;11.35;;;;;;;;;;5008671;28;20040;-60
2023/06/11 05:01:00;;;;;;;13.95;10.88;;;;;;;;;;5002565;28;20567;-59
2023/06/11 05:03:29;;;;;;;14.00;10.73;;;;;;;;;;5010047;28;20375;-59
2023/06/11 05:05:55;;;;;;;14.13;10.70;;;;;;;;;;4995503;28;20030;-59
2023/06/11 05:08:24;;;;;;;12.20;10.80;;;;;;;;;;5005343;28;20036;-60
2023/06/11 05:10:53;;;;;;;12.10;10.45;;;;;;;;;;5009840;28;20084;-59
2023/06/11 05:13:24;;;;;;;14.73;11.32;;;;;;;;;;5002372;28;20054;-59
2023/06/11 05:15:51;;;;;;;12.82;10.57;;;;;;;;;;4992977;28;20042;-61
2023/06/11 05:18:16;;;;;;;15.07;10.38;;;;;;;;;;4996355;28;20040;-60
2023/06/11 05:20:42;;;;;;;13.98;10.93;;;;;;;;;;5011909;28;20038;-60
2023/06/11 05:23:07;;;;;;;12.90;10.73;;;;;;;;;;5005716;28;20076;-60
2023/06/11 05:25:33;;;;;;;11.13;9.93;;;;;;;;;;5009634;28;20117;-61
2023/06/11 05:28:02;;;;;;;14.95;10.80;;;;;;;;;;5006383;28;20038;-60
2023/06/11 05:30:29;;;;;;;12.70;10.27;;;;;;;;;;5002357;28;20065;-60
2023/06/11 05:32:56;;;;;;;13.25;10.38;;;;;;;;;;5011811;28;20477;-60
2023/06/11 05:35:25;;;;;;;12.50;10.98;;;;;;;;;;4992270;28;20050;-60
2023/06/11 05:37:51;;;;;;;12.82;10.52;;;;;;;;;;5008906;28;20115;-60
2023/06/11 05:40:17;;;;;;;11.88;10.02;;;;;;;;;;5014593;28;20054;-59
2023/06/11 05:42:42;;;;;;;12.05;9.95;;;;;;;;;;5014777;28;20374;-59
2023/06/11 05:45:08;;;;;;;12.70;10.38;;;;;;;;;;5005325;28;20435;-59
2023/06/11 05:47:34;;;;;;;11.38;10.13;;;;;;;;;;4994701;28;20093;-59
2023/06/11 05:49:59;;;;;;;11.82;10.02;;;;;;;;;;5005604;28;20034;-59
2023/06/11 05:52:25;;;;;;;12.82;10.43;;;;;;;;;;4999934;28;20383;-59
2023/06/11 05:54:50;;;;;;;12.93;10.20;;;;;;;;;;4996933;28;20034;-59
2023/06/11 05:57:20;;;;;;;12.70;9.52;;;;;;;;;;5013909;28;20041;-59
2023/06/11 05:59:46;;;;;;;11.98;10.50;;;;;;;;;;5015178;28;20069;-59
2023/06/11 06:02:11;;;;;;;12.02;9.95;;;;;;;;;;5015033;28;20065;-59
2023/06/11 06:04:37;;;;;;;11.70;10.20;;;;;;;;;;5013449;28;20040;-59
2023/06/11 06:07:02;;;;;;;10.80;8.90;;;;;;;;;;5014474;28;20120;-52
2023/06/11 06:09:28;;;;;;;10.75;8.90;;;;;;;;;;5014267;28;20042;-56
2023/06/11 06:11:53;;;;;;;11.10;9.48;;;;;;;;;;5015060;28;20109;-51
2023/06/11 06:14:18;;;;;;;12.10;8.73;;;;;;;;;;5014420;28;20434;-55
2023/06/11 06:16:44;;;;;;;11.27;8.45;;;;;;;;;;5014643;28;20026;-56
2023/06/11 06:19:09;;;;;;;10.57;8.35;;;;;;;;;;5014858;28;20387;-54
2023/06/11 06:21:35;;;;;;;10.90;8.18;;;;;;;;;;5022252;28;20223;-55
2023/06/11 06:24:00;;;;;;;12.50;8.30;;;;;;;;;;5016496;28;20058;-53
2023/06/11 06:26:25;;;;;;;11.48;8.52;;;;;;;;;;5013859;28;20117;-57
2023/06/11 06:28:53;;;;;;;12.70;8.90;;;;;;;;;;5014719;28;20022;-56
2023/06/11 06:31:20;;;;;;;11.43;8.48;;;;;;;;;;5014207;28;20034;-57
2023/06/11 06:33:46;;;;;;;9.10;7.80;;;;;;;;;;5014522;28;20045;-54
2023/06/11 06:36:12;;;;;;;9.63;8.07;;;;;;;;;;5014075;28;20034;-56
2023/06/11 06:38:37;;;;;;;10.75;8.23;;;;;;;;;;5014119;28;20030;-57
2023/06/11 06:41:03;;;;;;;15.15;8.55;;;;;;;;;;5014573;28;20453;-54
2023/06/11 06:43:28;;;;;;;10.98;8.05;;;;;;;;;;5012637;28;20092;-56
2023/06/11 06:45:54;;;;;;;11.02;8.25;;;;;;;;;;5014673;28;20046;-56
2023/06/11 06:48:22;;;;;;;10.48;8.05;;;;;;;;;;5013595;28;20033;-57
2023/06/11 06:50:47;;;;;;;10.88;8.20;;;;;;;;;;5013098;28;20061;-55
2023/06/11 06:53:14;;;;;;;8.77;7.88;;;;;;;;;;5014338;28;20072;-56
2023/06/11 06:55:40;;;;;;;9.27;8.00;;;;;;;;;;5012674;28;20090;-57
2023/06/11 06:58:05;;;;;;;11.65;8.13;;;;;;;;;;5014062;28;20455;-57
2023/06/11 07:00:31;;;;;;;9.40;7.88;;;;;;;;;;5012699;28;20048;-56
2023/06/11 07:02:56;;;;;;;8.68;7.78;;;;;;;;;;5013807;28;20064;-55
2023/06/11 07:05:22;;;;;;;10.27;7.88;;;;;;;;;;5013313;28;20034;-56
2023/06/11 07:07:47;;;;;;;11.07;7.78;;;;;;;;;;5013338;28;20036;-55
2023/06/11 07:10:12;;;;;;;11.25;8.15;;;;;;;;;;5013957;28;20030;-56
2023/06/11 07:12:38;;;;;;;9.95;8.02;;;;;;;;;;5012186;28;20113;-55
2023/06/11 07:15:04;;;;;;;10.48;7.70;;;;;;;;;;5012044;28;20026;-56
2023/06/11 07:17:29;;;;;;;9.35;7.80;;;;;;;;;;5012756;28;20038;-55
2023/06/11 07:19:55;;;;;;;8.65;7.75;;;;;;;;;;5013654;28;20061;-51
2023/06/11 07:22:20;;;;;;;8.77;7.60;;;;;;;;;;5013313;28;20030;-54
2023/06/11 07:24:48;;;;;;;11.43;7.75;;;;;;;;;;5013020;28;20041;-55
2023/06/11 07:27:16;;;;;;;10.23;8.07;;;;;;;;;;5013210;28;20396;-53
2023/06/11 07:29:41;;;;;;;9.27;7.47;;;;;;;;;;5011638;28;20025;-55
2023/06/11 07:32:08;;;;;;;8.93;7.68;;;;;;;;;;5013568;28;20033;-55
2023/06/11 07:34:33;;;;;;;9.15;7.70;;;;;;;;;;5012443;28;20129;-56
2023/06/11 07:36:58;;;;;;;10.80;8.32;;;;;;;;;;5013142;28;20034;-54
2023/06/11 07:39:24;;;;;;;9.75;7.35;;;;;;;;;;5012204;28;20049;-54
2023/06/11 07:41:49;;;;;;;10.25;7.68;;;;;;;;;;5013404;28;20026;-55
2023/06/11 07:44:15;;;;;;;9.93;7.40;;;;;;;;;;5012676;28;20030;-52
2023/06/11 07:46:40;;;;;;;11.00;7.60;;;;;;;;;;5010433;28;20525;-54
2023/06/11 07:49:06;;;;;;;10.65;7.60;;;;;;;;;;5013177;28;20018;-55
2023/06/11 07:51:32;;;;;;;9.57;7.60;;;;;;;;;;5012355;28;20069;-49
2023/06/11 07:53:58;;;;;;;8.52;7.15;;;;;;;;;;5013132;28;20026;-52
2023/06/11 07:56:24;;;;;;;8.52;7.45;;;;;;;;;;5012091;28;20033;-55
2023/06/11 07:58:50;;;;;;;8.65;7.38;;;;;;;;;;5012080;28;20041;-54
2023/06/11 08:01:15;;;;;;;10.57;7.10;;;;;;;;;;5012712;28;20488;-57
2023/06/11 08:03:41;;;;;;;10.60;7.28;;;;;;;;;;5005483;28;20750;-50
2023/06/11 08:06:07;;;;;;;8.63;7.30;;;;;;;;;;5012957;28;20475;-56
2023/06/11 08:08:33;;;;;;;8.70;6.93;;;;;;;;;;5012067;28;20064;-57
2023/06/11 08:10:58;;;;;;;11.13;8.05;;;;;;;;;;5012360;28;20105;-53
2023/06/11 08:13:24;;;;;;;8.88;7.40;;;;;;;;;;5012080;28;20117;-56
2023/06/11 08:15:49;;;;;;;8.40;7.20;;;;;;;;;;5012121;28;20486;-55
2023/06/11 08:18:14;;;;;;;9.20;7.57;;;;;;;;;;5012456;28;20037;-55
2023/06/11 08:20:40;;;;;;;7.85;6.95;;;;;;;;;;5012190;28;20390;-55
2023/06/11 08:23:05;;;;;;;12.80;7.60;;;;;;;;;;5012662;28;20451;-56
2023/06/11 08:25:31;;;;;;;10.00;7.00;;;;;;;;;;5011453;28;20096;-55
2023/06/11 08:27:57;;;;;;;8.52;7.00;;;;;;;;;;5012266;28;20109;-55
2023/06/11 08:30:22;;;;;;;8.52;6.97;;;;;;;;;;5012370;28;20026;-56
2023/06/11 08:32:48;;;;;;;9.68;7.38;;;;;;;;;;5009691;28;20042;-61
2023/06/11 08:35:13;;;;;;;9.57;7.43;;;;;;;;;;5006052;28;20061;-60
2023/06/11 08:37:39;;;;;;;9.63;6.82;;;;;;;;;;5009811;28;20033;-61
2023/06/11 08:40:08;;;;;;;7.78;6.97;;;;;;;;;;5008751;28;20414;-61
2023/06/11 08:42:34;;;;;;;8.68;7.03;;;;;;;;;;5011391;28;20112;-59
2023/06/11 08:44:59;;;;;;;10.32;6.50;;;;;;;;;;5012158;28;20129;-61
2023/06/11 08:47:25;;;;;;;8.70;6.88;;;;;;;;;;5011527;28;20049;-60
2023/06/11 08:49:54;;;;;;;9.48;6.70;;;;;;;;;;5011519;28;20034;-61
2023/06/11 08:52:21;;;;;;;8.77;6.82;;;;;;;;;;5012033;28;20109;-60
2023/06/11 08:54:47;;;;;;;8.43;6.65;;;;;;;;;;4999920;28;20054;-61
2023/06/11 08:57:12;;;;;;;10.18;6.50;;;;;;;;;;4990996;28;20061;-61
2023/06/11 08:59:38;;;;;;;9.48;7.20;;;;;;;;;;4991274;28;20459;-60
2023/06/11 09:02:03;;;;;;;8.25;6.22;;;;;;;;;;4992036;28;20030;-60
2023/06/11 09:04:29;;;;;;;7.05;6.18;;;;;;;;;;4991438;28;20034;-60
2023/06/11 09:07:00;;;;;;;7.47;5.80;;;;;;;;;;4992104;28;20066;-61
2023/06/11 09:09:26;;;;;;;9.93;5.65;;;;;;;;;;4998785;28;20029;-61
2023/06/11 09:11:52;;;;;;;7.18;5.70;;;;;;;;;;5011398;28;20041;-62
2023/06/11 09:14:17;;;;;;;8.65;5.68;;;;;;;;;;5011398;28;20456;-60
2023/06/11 09:16:45;;;;;;;6.97;5.40;;;;;;;;;;5010776;28;20026;-60
2023/06/11 09:19:13;;;;;;;6.90;5.38;;;;;;;;;;5011439;28;20406;-61
2023/06/11 09:21:50;;;;;;;7.10;5.45;;;;;;;;;;5011022;28;20121;-61
2023/06/11 09:24:17;;;;;;;6.72;5.65;;;;;;;;;;5000999;28;20026;-62
2023/06/11 09:27:05;;;;;;;6.55;5.40;;;;;;;;;;4991371;28;20038;-61
2023/06/11 09:29:30;;;;;;;6.43;5.47;;;;;;;;;;4991206;28;20117;-61
2023/06/11 09:32:06;;;;;;;7.20;5.47;;;;;;;;;;4991880;28;20463;-61
2023/06/11 09:34:31;;;;;;;7.38;5.57;;;;;;;;;;4991225;28;20037;-61
2023/06/11 09:36:57;;;;;;;7.60;5.47;;;;;;;;;;4991863;28;20391;-61
2023/06/11 09:39:23;;;;;;;7.15;5.80;;;;;;;;;;5008401;28;20092;-63
2023/06/11 09:41:50;;;;;;;8.60;5.60;;;;;;;;;;5010477;28;20033;-62
2023/06/11 09:44:19;;;;;;;6.50;5.30;;;;;;;;;;5011562;28;20030;-62
2023/06/11 09:46:48;;;;;;;7.47;5.65;;;;;;;;;;5010761;28;20022;-60
2023/06/11 09:49:15;;;;;;;7.00;5.63;;;;;;;;;;5009720;28;20030;-61
2023/06/11 09:51:42;;;;;;;6.65;5.50;;;;;;;;;;5010673;28;20111;-61
2023/06/11 09:54:08;;;;;;;6.53;5.40;;;;;;;;;;5010253;28;20045;-60
2023/06/11 09:56:37;;;;;;;7.07;4.97;;;;;;;;;;5010501;28;20026;-60
2023/06/11 09:59:03;;;;;;;6.70;5.18;;;;;;;;;;4991987;28;20049;-60
2023/06/11 10:01:30;;;;;;;5.78;5.03;;;;;;;;;;4990308;28;20026;-60
2023/06/11 10:03:59;;;;;;;6.65;5.20;;;;;;;;;;4990210;28;20027;-61
2023/06/11 10:06:34;;;;;;;7.47;5.38;;;;;;;;;;4991824;28;20049;-61
2023/06/11 10:09:04;;;;;;;8.18;5.18;;;;;;;;;;4999425;28;20092;-61
2023/06/11 10:11:38;;;;;;;6.32;5.20;;;;;;;;;;5010854;28;20029;-61
2023/06/11 10:14:05;;;;;;;8.00;5.13;;;;;;;;;;5011414;28;20040;-61
2023/06/11 10:16:33;;;;;;;8.75;5.32;;;;;;;;;;5011040;28;20034;-61
2023/06/11 10:19:06;;;;;;;6.68;5.40;;;;;;;;;;5011278;28;20060;-62
2023/06/11 10:21:41;;;;;;;9.05;5.35;;;;;;;;;;5010909;28;20030;-61
2023/06/11 10:24:07;;;;;;;7.20;5.05;;;;;;;;;;5010386;28;20037;-60
2023/06/11 10:26:37;;;;;;;6.65;5.15;;;;;;;;;;5013825;28;20087;-60
2023/06/11 10:29:10;;;;;;;7.43;5.47;;;;;;;;;;5014513;28;20061;-61
2023/06/11 10:31:40;;;;;;;5.78;5.15;;;;;;;;;;5013772;28;20034;-61
2023/06/11 10:34:05;;;;;;;;;;;;;;;;;;5014774;28;20022;-61
2023/06/11 10:36:35;;;;;;;6.97;5.38;;;;;;;;;;5008604;28;19968;-61
2023/06/11 10:39:09;;;;;;;8.75;5.20;;;;;;;;;;5002382;28;20050;-62
2023/06/11 10:41:39;;;;;;;6.15;5.30;;;;;;;;;;5013782;28;20041;-60
2023/06/11 10:44:04;;;;;;;;;;;;;;;;;;5014959;28;20029;-61
2023/06/11 10:46:30;;;;;;;7.40;5.20;;;;;;;;;;5014459;28;20236;-61
2023/06/11 10:48:55;;;;;;;7.18;5.50;;;;;;;;;;5013094;28;20029;-62
2023/06/11 10:51:21;;;;;;;6.25;5.18;;;;;;;;;;5012896;28;20500;-62
2023/06/11 10:53:58;;;;;;;8.20;4.75;;;;;;;;;;5009216;28;20467;-61
2023/06/11 10:56:25;;;;;;;7.00;5.30;;;;;;;;;;5006796;28;20034;-61
2023/06/11 10:58:52;;;;;;;6.18;5.50;;;;;;;;;;5008837;28;20966;-61
2023/06/11 11:01:21;;;;;;;7.60;5.00;;;;;;;;;;5011492;28;20096;-61
2023/06/11 11:03:48;;;;;;;6.73;5.27;;;;;;;;;;5013077;28;20118;-61
2023/06/11 11:06:25;;;;;;;7.97;5.18;;;;;;;;;;5014026;28;20340;-61
2023/06/11 11:08:51;;;;;;;9.95;5.38;;;;;;;;;;5009881;28;20026;-61
2023/06/11 11:11:17;;;;;;;8.68;5.20;;;;;;;;;;5013864;28;20026;-62
2023/06/11 11:13:45;;;;;;;7.90;5.38;;;;;;;;;;5012885;28;20555;-61
2023/06/11 11:16:10;;;;;;;6.85;5.57;;;;;;;;;;5013747;28;20080;-61
2023/06/11 11:18:36;;;;;;;10.75;5.05;;;;;;;;;;5013010;28;20124;-59
2023/06/11 11:21:01;;;;;;;9.98;5.07;;;;;;;;;;5013487;28;20456;-62
2023/06/11 11:23:27;;;;;;;7.80;5.32;;;;;;;;;;5009176;28;20022;-61
2023/06/11 11:25:52;;;;;;;8.10;5.20;;;;;;;;;;5011401;28;20099;-61
2023/06/11 11:28:17;;;;;;;7.95;5.07;;;;;;;;;;5013430;28;20026;-62
2023/06/11 11:30:43;;;;;;;6.00;4.93;;;;;;;;;;5012566;28;20033;-62
2023/06/11 11:33:10;;;;;;;6.28;5.20;;;;;;;;;;5013769;28;20034;-62
2023/06/11 11:35:47;;;;;;;6.38;5.15;;;;;;;;;;5012371;28;20108;-59
2023/06/11 11:38:12;;;;;;;6.47;4.82;;;;;;;;;;4996095;28;20038;-60
2023/06/11 11:40:38;;;;;;;8.45;5.40;;;;;;;;;;5012360;28;20060;-62
2023/06/11 11:43:03;;;;;;;7.57;4.82;;;;;;;;;;5012931;28;20080;-62
2023/06/11 11:45:33;;;;;;;6.50;5.20;;;;;;;;;;5013070;28;20037;-61
2023/06/11 11:48:00;;;;;;;6.70;5.50;;;;;;;;;;5012403;28;20108;-62
2023/06/11 11:50:27;;;;;;;6.05;5.13;;;;;;;;;;5011708;28;20057;-62
2023/06/11 11:53:12;;;;;;;8.70;5.22;;;;;;;;;;5009591;28;20386;-62
2023/06/11 11:55:39;;;;;;;7.65;5.05;;;;;;;;;;5012268;28;20056;-61
2023/06/11 11:58:11;;;;;;;7.15;4.80;;;;;;;;;;5012518;28;20030;-62
2023/06/11 12:00:44;;;;;;;9.70;4.93;;;;;;;;;;5012186;28;20459;-61
2023/06/11 12:03:10;;;;;;;9.63;4.78;;;;;;;;;;5013089;28;20057;-62
2023/06/11 12:05:37;;;;;;;6.30;4.80;;;;;;;;;;5012559;28;20068;-61
2023/06/11 12:08:03;;;;;;;5.90;4.60;;;;;;;;;;5004052;28;20034;-61
2023/06/11 12:10:29;;;;;;;7.55;4.93;;;;;;;;;;4991683;28;20037;-62
2023/06/11 12:12:54;;;;;;;7.47;4.78;;;;;;;;;;4992291;28;20352;-61
2023/06/11 12:15:20;;;;;;;6.72;4.60;;;;;;;;;;4993154;28;20062;-61
2023/06/11 12:17:45;;;;;;;6.50;5.10;;;;;;;;;;4992259;28;20454;-61
2023/06/11 12:20:12;;;;;;;15.35;5.03;;;;;;;;;;4992826;28;20034;-61
2023/06/11 12:22:38;;;;;;;6.07;4.78;;;;;;;;;;4991488;28;20042;-61
2023/06/11 12:25:04;;;;;;;6.53;4.80;;;;;;;;;;5011761;28;20084;-62
2023/06/11 12:27:29;;;;;;;5.80;4.22;;;;;;;;;;5011362;28;20041;-62
2023/06/11 12:29:55;;;;;;;7.50;4.60;;;;;;;;;;5011214;28;20105;-61
2023/06/11 12:32:22;;;;;;;6.45;4.70;;;;;;;;;;5012366;28;20053;-61
2023/06/11 12:34:50;;;;;;;7.13;4.60;;;;;;;;;;5011660;28;20073;-61
2023/06/11 12:37:16;;;;;;;9.05;4.70;;;;;;;;;;5000196;28;20058;-61
2023/06/11 12:39:46;;;;;;;8.48;5.13;;;;;;;;;;5009857;28;20076;-61
2023/06/11 12:42:13;;;;;;;8.23;5.00;;;;;;;;;;5012182;28;20077;-61
2023/06/11 12:44:41;;;;;;;5.80;4.95;;;;;;;;;;5011634;28;20042;-61
2023/06/11 12:47:06;;;;;;;5.82;4.93;;;;;;;;;;5011425;28;20033;-61
2023/06/11 12:49:32;;;;;;;7.38;5.20;;;;;;;;;;5011509;28;20026;-61
2023/06/11 12:51:57;;;;;;;5.97;4.70;;;;;;;;;;5010031;28;20553;-62
2023/06/11 12:54:26;;;;;;;6.68;4.65;;;;;;;;;;5010926;28;20041;-61
2023/06/11 12:56:51;;;;;;;6.53;4.80;;;;;;;;;;5011504;28;20048;-61
2023/06/11 12:59:20;;;;;;;5.75;4.43;;;;;;;;;;5011714;28;20033;-62
2023/06/11 13:01:45;;;;;;;6.97;4.88;;;;;;;;;;5011120;28;20034;-61
2023/06/11 13:04:11;;;;;;;6.35;4.75;;;;;;;;;;5012037;28;20041;-62
2023/06/11 13:06:36;;;;;;;6.72;4.85;;;;;;;;;;5011642;28;20105;-62
2023/06/11 13:09:02;;;;;;;5.30;4.80;;;;;;;;;;5007568;28;20032;-61
2023/06/11 13:11:28;;;;;;;7.97;4.75;;;;;;;;;;5011702;28;20038;-61
2023/06/11 13:13:54;;;;;;;7.28;4.50;;;;;;;;;;4993957;28;20058;-61
2023/06/11 13:16:19;;;;;;;6.40;4.65;;;;;;;;;;4992296;28;20037;-62
2023/06/11 13:18:45;;;;;;;6.80;4.53;;;;;;;;;;4991410;28;20038;-61
2023/06/11 13:21:11;;;;;;;7.20;4.97;;;;;;;;;;4991966;28;20061;-62
2023/06/11 13:23:36;;;;;;;8.57;4.90;;;;;;;;;;4992191;28;20081;-61
2023/06/11 13:26:02;;;;;;;8.68;4.85;;;;;;;;;;4991292;28;20026;-62
2023/06/11 13:28:28;;;;;;;8.00;5.18;;;;;;;;;;5010329;28;20029;-56
2023/06/11 13:30:55;;;;;;;8.95;5.00;;;;;;;;;;5014758;28;20038;-57
2023/06/11 13:33:21;;;;;;;7.90;5.30;;;;;;;;;;4998210;28;20469;-57
2023/06/11 13:35:48;;;;;;;9.18;4.90;;;;;;;;;;4998783;28;20502;-56
2023/06/11 13:38:14;;;;;;;7.22;4.88;;;;;;;;;;4991883;28;20026;-57
2023/06/11 13:40:39;;;;;;;8.90;5.13;;;;;;;;;;4991765;28;20081;-55
2023/06/11 13:43:05;;;;;;;7.15;4.45;;;;;;;;;;4991183;28;20026;-57
2023/06/11 13:45:30;;;;;;;6.25;4.80;;;;;;;;;;4991633;28;20080;-57
2023/06/11 13:48:00;;;;;;;7.82;4.70;;;;;;;;;;4991066;28;20057;-58
2023/06/11 13:50:25;;;;;;;6.70;4.82;;;;;;;;;;5005829;28;20030;-57
2023/06/11 13:52:51;;;;;;;9.05;4.90;;;;;;;;;;5030193;28;20163;-57
2023/06/11 13:55:16;;;;;;;7.93;4.85;;;;;;;;;;5031243;28;20025;-57
2023/06/11 13:57:41;;;;;;;7.57;4.95;;;;;;;;;;5029430;28;20033;-56
2023/06/11 14:00:07;;;;;;;7.53;4.88;;;;;;;;;;5032262;28;20112;-56
2023/06/11 14:02:33;;;;;;;6.07;4.50;;;;;;;;;;5023553;28;20046;-56
2023/06/11 14:04:58;;;;;;;6.68;5.10;;;;;;;;;;5012762;28;20026;-53
2023/06/11 14:07:24;;;;;;;7.80;5.03;;;;;;;;;;5015100;28;20383;-56
2023/06/11 14:09:50;;;;;;;7.57;4.80;;;;;;;;;;5014030;28;20434;-57
2023/06/11 14:12:15;;;;;;;5.32;4.80;;;;;;;;;;5015140;28;20026;-56
2023/06/11 14:14:40;;;;;;;6.05;4.68;;;;;;;;;;5014467;28;20037;-55
2023/06/11 14:17:07;;;;;;;5.47;4.88;;;;;;;;;;5014255;28;20038;-55
2023/06/11 14:19:33;;;;;;;6.75;5.05;;;;;;;;;;5002884;28;20045;-56
2023/06/11 14:21:58;;;;;;;6.45;5.28;;;;;;;;;;5022390;28;20041;-57
2023/06/11 14:24:23;;;;;;;8.02;5.00;;;;;;;;;;5028084;28;20025;-56
2023/06/11 14:26:51;;;;;;;7.65;5.15;;;;;;;;;;5033470;28;20030;-54
2023/06/11 14:29:16;;;;;;;8.75;5.03;;;;;;;;;;5033970;28;20116;-55
2023/06/11 14:31:42;;;;;;;7.25;5.05;;;;;;;;;;5034360;28;20136;-57